»·PEaware :: N335AK 4S1-KSAC

N335AK :: 4S1-KSAC

FLIGHT INFORMATION

Flight Status: Arrived
Operator: Privately registered:
United States
More flights under this callsign
Pilot: Gabor H. (24209)
Aircraft: Unknown
(EPIC)
More flights by this aircraft type
Origin: 4S1 Gold Beach Mun
United States
Destination: KSAC Sacramento Executive
United States
More flights between these airports :: More routes between these airports
Route: CEC V27 FOT V195 RBL V23 SAC
File this flight plan on PilotEdge
Remarks:
Altitude:
(Current/Filed)
17,000ft
Speed:
(Current/Filed)
325kts
Departed: 16-Aug-20 11:13 AM
Arrived: 16-Aug-20 12:22 PM
Distance/Time
Traveled:
269nm/1:08
Distance/Time
To Go:
Arrived

Flight Plot

Page will automatically refresh every two minutes.

Flight plan parsing failed; only flown route is shown


Map Options




Map Legend


Flown Route
Filed Route
Departure Airport
Arrival Airport
Navaid (VOR, NDB)
Fix

Horizontal Profiles

Position Reports

Time Latitude Longitude Heading Altitude Ground
Speed
16-Aug-20 11:01 42.418518 -124.423619 166 17ft 0kts
16-Aug-20 11:01 42.418518 -124.423619 166 17ft 0kts
16-Aug-20 11:02 42.418518 -124.423619 166 17ft 0kts
16-Aug-20 11:04 42.418518 -124.423619 166 17ft 0kts
16-Aug-20 11:05 42.418517 -124.423619 166 17ft 0kts
16-Aug-20 11:05 42.418517 -124.423619 166 17ft 0kts
16-Aug-20 11:06 42.418517 -124.423619 166 17ft 0kts
16-Aug-20 11:08 42.418517 -124.423619 166 17ft 0kts
16-Aug-20 11:08 42.418517 -124.423619 166 17ft 0kts
16-Aug-20 11:09 42.418517 -124.423619 165 17ft 0kts
16-Aug-20 11:10 42.418926 -124.424780 353 14ft 13kts
16-Aug-20 11:11 42.419605 -124.425329 244 12ft 6kts
16-Aug-20 11:12 42.401478 -124.426827 190 962ft 139kts
16-Aug-20 11:13 42.356429 -124.437687 180 3327ft 181kts
16-Aug-20 11:14 42.303286 -124.438748 176 6361ft 199kts
16-Aug-20 11:15 42.249902 -124.421343 165 9468ft 201kts
16-Aug-20 11:16 42.196214 -124.400659 166 12372ft 205kts
16-Aug-20 11:17 42.140913 -124.379323 166 15007ft 212kts
16-Aug-20 11:18 42.083085 -124.357060 166 16976ft 233kts
16-Aug-20 11:19 42.014534 -124.330744 166 16989ft 271kts
16-Aug-20 11:20 41.940333 -124.302275 166 16985ft 282kts
16-Aug-20 11:21 41.865937 -124.273795 166 16995ft 286kts
16-Aug-20 11:22 41.789246 -124.244505 165 16994ft 287kts
16-Aug-20 11:23 41.710227 -124.240452 179 16993ft 286kts
16-Aug-20 11:24 41.630840 -124.239962 179 16992ft 286kts
16-Aug-20 11:25 41.551261 -124.239504 179 16991ft 286kts
16-Aug-20 11:26 41.471941 -124.239036 179 16990ft 286kts
16-Aug-20 11:27 41.392552 -124.238571 179 16985ft 286kts
16-Aug-20 11:28 41.313028 -124.238106 179 16975ft 286kts
16-Aug-20 11:29 41.233416 -124.237641 179 16969ft 288kts
16-Aug-20 11:30 41.153284 -124.237202 179 16968ft 288kts
16-Aug-20 11:31 41.073060 -124.236786 179 16967ft 289kts
16-Aug-20 11:32 40.992369 -124.236293 180 16967ft 291kts
16-Aug-20 11:33 40.911139 -124.235870 180 16967ft 294kts
16-Aug-20 11:34 40.830911 -124.235414 180 16975ft 296kts
16-Aug-20 11:35 40.748524 -124.234946 180 16974ft 296kts
16-Aug-20 11:36 40.671167 -124.212600 132 16984ft 310kts
16-Aug-20 11:37 40.635886 -124.106184 116 16973ft 320kts
16-Aug-20 11:38 40.605339 -123.996251 115 16973ft 320kts
16-Aug-20 11:39 40.574697 -123.886262 115 16973ft 320kts
16-Aug-20 11:40 40.543934 -123.776388 115 16973ft 320kts
16-Aug-20 11:41 40.513021 -123.666548 115 16972ft 320kts
16-Aug-20 11:42 40.482098 -123.556975 115 16972ft 320kts
16-Aug-20 11:43 40.450972 -123.447145 115 16972ft 320kts
16-Aug-20 11:44 40.419752 -123.337457 116 16972ft 320kts
16-Aug-20 11:45 40.388450 -123.227935 116 16980ft 320kts
16-Aug-20 11:46 40.357074 -123.118623 116 16988ft 321kts
16-Aug-20 11:47 40.325452 -123.008910 116 16989ft 323kts
16-Aug-20 11:48 40.293404 -122.898197 116 16987ft 326kts
16-Aug-20 11:49 40.261098 -122.787066 116 16986ft 328kts
16-Aug-20 11:50 40.228403 -122.675088 116 16984ft 328kts
16-Aug-20 11:51 40.195762 -122.563780 116 16981ft 329kts
16-Aug-20 11:52 40.162811 -122.451890 116 16980ft 329kts
16-Aug-20 11:53 40.130027 -122.341061 117 16978ft 329kts
16-Aug-20 11:54 40.089491 -122.237364 149 16976ft 309kts
16-Aug-20 11:55 40.012728 -122.191117 161 16976ft 304kts
16-Aug-20 11:56 39.934255 -122.149933 161 16966ft 304kts
16-Aug-20 11:57 39.856338 -122.109202 161 16961ft 306kts
16-Aug-20 11:58 39.777524 -122.068110 161 16956ft 306kts
16-Aug-20 11:59 39.698526 -122.027024 161 16955ft 306kts
16-Aug-20 12:00 39.619451 -121.985991 161 16955ft 306kts
16-Aug-20 12:01 39.540428 -121.945090 161 16954ft 306kts
16-Aug-20 12:02 39.461122 -121.904149 161 16677ft 314kts
16-Aug-20 12:03 39.381197 -121.863030 161 15272ft 297kts
16-Aug-20 12:04 39.305442 -121.828452 168 13985ft 283kts
16-Aug-20 12:05 39.229953 -121.803764 168 12744ft 276kts
16-Aug-20 12:06 39.156403 -121.779912 169 11539ft 272kts
16-Aug-20 12:07 39.083162 -121.756235 170 10349ft 270kts
16-Aug-20 12:08 39.010944 -121.732949 170 9183ft 268kts
16-Aug-20 12:09 38.938649 -121.709633 170 8008ft 265kts
16-Aug-20 12:10 38.869142 -121.687263 170 6880ft 260kts
16-Aug-20 12:11 38.799519 -121.664973 161 5733ft 256kts
16-Aug-20 12:12 38.730677 -121.642973 161 5012ft 252kts
16-Aug-20 12:13 38.663721 -121.624996 173 4834ft 249kts
16-Aug-20 12:14 38.593760 -121.623379 183 4042ft 242kts
16-Aug-20 12:15 38.529152 -121.624381 183 3233ft 228kts
16-Aug-20 12:16 38.467031 -121.626066 183 2425ft 215kts
16-Aug-20 12:17 38.419318 -121.592432 119 1462ft 203kts
16-Aug-20 12:18 38.440056 -121.555991 29 1423ft 171kts
16-Aug-20 12:19 38.474702 -121.526020 27 790ft 99kts
16-Aug-20 12:20 38.498081 -121.506656 28 238ft 100kts
16-Aug-20 12:21 38.511093 -121.496206 343 22ft 14kts
16-Aug-20 12:22 38.511387 -121.497336 277 22ft 9kts
16-Aug-20 12:23 38.513209 -121.496842 3 23ft 7kts
16-Aug-20 12:24 38.514357 -121.497840 309 22ft 6kts
16-Aug-20 12:25 38.514763 -121.498333 210 23ft 0kts
16-Aug-20 12:26 38.514763 -121.498333 210 23ft 0kts

Navigation Log

Ident Type
Flight plan parsing failed, navigation log unavailable